Time;durP1;ratioP1;P1;durP2;ratioP2;P2;SDS_P1;SDS_P2;PMS_P1;PMS_P2;Temp;Humidity;BMP_temperature;BMP_pressure;BME280_temperature;BME280_humidity;BME280_pressure;Samples;Min_cycle;Max_cycle;Signal;HPM_P1;HPM_P2
2022/12/07 00:01:11;;;;;;;18.10;12.07;;;4.20;99.90;;;;;;5052867;28;20268;-44
2022/12/07 00:03:38;;;;;;;23.60;12.17;;;4.20;99.90;;;;;;5053412;28;20558;-44
2022/12/07 00:06:05;;;;;;;16.67;11.03;;;4.20;99.90;;;;;;5052900;28;20263;-43
2022/12/07 00:08:32;;;;;;;21.53;12.33;;;4.10;99.90;;;;;;5051589;28;20197;-42
2022/12/07 00:11:06;;;;;;;19.50;11.40;;;4.20;99.90;;;;;;5052936;28;20260;-42
2022/12/07 00:13:33;;;;;;;19.97;11.53;;;4.20;99.90;;;;;;5053403;28;20184;-43
2022/12/07 00:16:07;;;;;;;18.97;10.77;;;4.10;99.90;;;;;;5053585;28;20184;-42
2022/12/07 00:18:33;;;;;;;18.43;12.67;;;4.10;99.90;;;;;;5053886;28;20199;-43
2022/12/07 00:21:05;;;;;;;20.03;11.93;;;4.10;99.90;;;;;;5054194;28;20199;-44
2022/12/07 00:23:31;;;;;;;19.27;12.90;;;4.10;99.90;;;;;;5054480;28;20283;-44
2022/12/07 00:26:23;;;;;;;21.97;13.90;;;4.10;99.90;;;;;;5055439;28;20205;-43
2022/12/07 00:28:57;;;;;;;20.57;12.77;;;4.10;99.90;;;;;;5045887;28;20208;-43
2022/12/07 00:31:25;;;;;;;20.87;13.33;;;4.10;99.90;;;;;;5071722;28;20200;-44
2022/12/07 00:33:51;;;;;;;21.43;12.50;;;4.10;99.90;;;;;;5057972;28;20185;-41
2022/12/07 00:36:22;;;;;;;18.97;12.17;;;4.10;99.90;;;;;;5057620;28;20683;-43
2022/12/07 00:38:47;;;;;;;21.97;12.57;;;4.10;99.90;;;;;;5056754;28;20208;-42
2022/12/07 00:41:19;;;;;;;20.10;13.40;;;4.10;99.90;;;;;;5057498;28;20642;-42
2022/12/07 00:43:46;;;;;;;18.40;11.93;;;4.10;99.90;;;;;;5057397;28;20660;-45
2022/12/07 00:46:13;;;;;;;23.43;13.47;;;4.10;99.90;;;;;;5056566;28;20183;-44
2022/12/07 00:48:38;;;;;;;18.73;13.03;;;4.10;99.90;;;;;;5056423;28;20209;-43
2022/12/07 00:51:04;;;;;;;19.97;13.73;;;4.10;99.90;;;;;;5038678;28;20193;-43
2022/12/07 00:53:31;;;;;;;21.23;13.13;;;4.00;99.90;;;;;;5056310;28;20219;-43
2022/12/07 00:55:56;;;;;;;23.73;14.00;;;4.00;99.90;;;;;;5056131;28;20185;-43
2022/12/07 00:58:23;;;;;;;19.67;13.33;;;4.00;99.90;;;;;;5056042;28;20257;-42
2022/12/07 01:00:50;;;;;;;21.80;13.00;;;4.00;99.90;;;;;;5055937;28;20189;-43
2022/12/07 01:03:16;;;;;;;23.83;14.30;;;4.00;99.90;;;;;;5055510;28;20185;-43
2022/12/07 01:05:53;;;;;;;24.87;14.03;;;4.00;99.90;;;;;;5055929;28;20251;-44
2022/12/07 01:08:19;;;;;;;21.33;13.23;;;4.00;99.90;;;;;;5055625;28;20172;-41
2022/12/07 01:10:45;;;;;;;19.20;13.30;;;4.00;99.90;;;;;;5055798;28;20250;-43
2022/12/07 01:13:11;;;;;;;22.43;14.00;;;4.00;99.90;;;;;;5055715;28;20588;-43
2022/12/07 01:15:44;;;;;;;25.13;13.97;;;4.00;99.90;;;;;;5055591;28;20267;-42
2022/12/07 01:18:10;;;;;;;21.23;13.47;;;4.00;99.90;;;;;;5055251;28;20173;-43
2022/12/07 01:20:37;;;;;;;21.93;12.77;;;4.00;99.90;;;;;;5055265;28;20185;-41
2022/12/07 01:23:03;;;;;;;21.60;13.67;;;4.00;99.90;;;;;;5055537;28;20177;-44
2022/12/07 01:25:29;;;;;;;21.57;14.33;;;4.00;99.90;;;;;;5055394;28;20192;-43
2022/12/07 01:27:54;;;;;;;22.77;14.87;;;4.00;99.90;;;;;;5055170;28;20679;-44
2022/12/07 01:30:20;;;;;;;22.53;13.20;;;4.00;99.90;;;;;;5055286;28;20196;-44
2022/12/07 01:32:45;;;;;;;21.13;13.20;;;4.00;99.90;;;;;;5055435;28;20173;-43
2022/12/07 01:35:11;;;;;;;19.93;13.20;;;4.00;99.90;;;;;;5055330;28;20203;-43
2022/12/07 01:37:38;;;;;;;19.43;13.97;;;4.10;99.90;;;;;;5055490;28;20211;-44
2022/12/07 01:40:07;;;;;;;21.77;13.63;;;4.10;99.90;;;;;;5055026;28;20283;-45
2022/12/07 01:42:34;;;;;;;21.53;13.53;;;4.10;99.90;;;;;;5054713;28;20216;-42
2022/12/07 01:45:18;;;;;;;24.67;13.63;;;4.10;99.90;;;;;;5054588;28;20216;-45
2022/12/07 01:47:56;;;;;;;19.17;13.17;;;4.10;99.90;;;;;;5054426;28;20259;-43
2022/12/07 01:50:26;;;;;;;22.20;14.43;;;4.10;99.90;;;;;;5054734;28;20299;-43
2022/12/07 01:52:55;;;;;;;22.40;13.97;;;4.20;99.90;;;;;;5054706;28;20184;-43
2022/12/07 01:55:21;;;;;;;23.40;13.87;;;4.20;99.90;;;;;;5055130;28;20200;-43
2022/12/07 01:57:50;;;;;;;28.77;16.13;;;4.20;99.90;;;;;;5054639;28;20692;-43
2022/12/07 02:00:16;;;;;;;20.50;14.53;;;4.20;99.90;;;;;;5054496;28;20205;-44
2022/12/07 02:03:05;;;;;;;22.67;14.03;;;4.20;99.90;;;;;;5054459;28;20216;-42
2022/12/07 02:05:32;;;;;;;24.67;13.30;;;4.20;99.90;;;;;;5034329;28;20254;-42
2022/12/07 02:07:58;;;;;;;23.13;15.00;;;4.20;99.90;;;;;;5054360;28;20239;-43
2022/12/07 02:10:27;;;;;;;23.23;15.20;;;4.30;99.90;;;;;;5054299;28;20223;-43
2022/12/07 02:13:10;;;;;;;23.23;15.27;;;4.30;99.90;;;;;;5054407;28;20164;-43
2022/12/07 02:15:57;;;;;;;24.37;16.43;;;4.30;99.90;;;;;;5054788;28;20168;-44
2022/12/07 02:18:32;;;;;;;24.27;15.20;;;4.30;99.90;;;;;;5054565;28;20189;-41
2022/12/07 02:21:27;;;;;;;24.10;14.03;;;4.30;99.90;;;;;;5054395;28;20156;-43
2022/12/07 02:24:11;;;;;;;33.90;22.87;;;4.30;99.90;;;;;;5052883;28;20197;-43
2022/12/07 02:27:09;;;;;;;22.60;13.50;;;4.30;99.90;;;;;;5054418;28;20167;-44
2022/12/07 02:30:11;;;;;;;28.40;20.53;;;4.30;99.90;;;;;;5054361;28;20196;-44
2022/12/07 02:32:46;;;;;;;25.60;17.07;;;4.40;99.90;;;;;;5054095;28;20175;-43
2022/12/07 02:35:18;;;;;;;25.53;16.50;;;4.40;99.90;;;;;;5054272;28;20276;-43
2022/12/07 02:38:04;;;;;;;23.97;17.07;;;4.40;99.90;;;;;;5054065;28;20617;-44
2022/12/07 02:40:40;;;;;;;27.77;18.07;;;4.40;99.90;;;;;;5053982;28;20173;-44
2022/12/07 02:43:17;;;;;;;24.63;16.67;;;4.40;99.90;;;;;;5053787;28;20177;-42
2022/12/07 02:45:45;;;;;;;18.63;14.17;;;4.40;99.90;;;;;;5054328;28;20164;-44
2022/12/07 02:48:15;;;;;;;23.27;14.77;;;4.40;99.90;;;;;;5053895;28;20168;-43
2022/12/07 02:50:48;;;;;;;25.43;15.73;;;4.40;99.90;;;;;;5053554;28;20199;-44
2022/12/07 02:53:36;;;;;;;26.07;16.00;;;4.30;99.90;;;;;;5053687;28;20558;-46
2022/12/07 02:56:16;;;;;;;22.10;16.47;;;4.30;99.90;;;;;;5053879;28;20247;-44
2022/12/07 02:58:59;;;;;;;24.80;16.23;;;4.30;99.90;;;;;;5053171;28;20200;-41
2022/12/07 03:01:38;;;;;;;26.80;17.27;;;4.30;99.90;;;;;;5053982;28;20177;-43
2022/12/07 03:04:29;;;;;;;28.87;16.70;;;4.30;99.90;;;;;;5053946;28;20283;-43
2022/12/07 03:07:06;;;;;;;28.20;17.67;;;4.30;99.90;;;;;;5053689;28;20161;-43
2022/12/07 03:09:57;;;;;;;26.83;16.57;;;4.30;99.90;;;;;;5053935;28;20479;-43
2022/12/07 03:12:31;;;;;;;24.97;17.97;;;4.30;99.90;;;;;;5053749;28;20160;-43
2022/12/07 03:15:07;;;;;;;24.77;16.90;;;4.30;99.90;;;;;;5053565;28;20162;-43
2022/12/07 03:17:38;;;;;;;19.97;14.37;;;4.30;99.90;;;;;;5053686;28;20225;-44
2022/12/07 03:20:07;;;;;;;28.33;17.03;;;4.30;99.90;;;;;;5053425;28;20197;-43
2022/12/07 03:22:35;;;;;;;21.83;15.23;;;4.30;99.90;;;;;;5054036;28;20186;-45
2022/12/07 03:25:06;;;;;;;24.63;16.07;;;4.40;99.90;;;;;;5054397;28;20238;-45
2022/12/07 03:27:39;;;;;;;29.27;18.00;;;4.40;99.90;;;;;;5054327;28;20157;-43
2022/12/07 03:30:12;;;;;;;23.87;16.00;;;4.30;99.90;;;;;;5055802;28;20205;-45
2022/12/07 03:33:00;;;;;;;27.90;17.70;;;4.30;99.90;;;;;;5063580;28;20187;-44
2022/12/07 03:35:34;;;;;;;23.00;16.63;;;4.30;99.90;;;;;;5066533;28;20196;-42
2022/12/07 03:38:27;;;;;;;27.10;17.87;;;4.30;99.90;;;;;;5053972;28;20192;-44
2022/12/07 03:41:01;;;;;;;28.90;18.07;;;4.30;99.90;;;;;;5053674;28;20173;-43
2022/12/07 03:43:29;;;;;;;27.30;17.73;;;4.30;99.90;;;;;;5053692;28;20596;-43
2022/12/07 03:46:15;;;;;;;25.37;17.23;;;4.30;99.90;;;;;;5052136;28;20551;-44
2022/12/07 03:48:50;;;;;;;24.67;16.73;;;4.30;99.90;;;;;;5053195;28;20683;-42
2022/12/07 03:51:33;;;;;;;29.43;17.50;;;4.20;99.90;;;;;;5053052;28;20196;-43
2022/12/07 03:54:09;;;;;;;21.40;14.77;;;4.20;99.90;;;;;;5053372;28;20252;-42
2022/12/07 03:56:36;;;;;;;22.10;15.33;;;4.20;99.90;;;;;;5053437;28;20181;-44
2022/12/07 03:59:02;;;;;;;26.50;16.07;;;4.20;99.90;;;;;;5053164;28;20204;-43
2022/12/07 04:01:27;;;;;;;24.77;16.97;;;4.20;99.90;;;;;;5053237;28;20188;-44
2022/12/07 04:03:53;;;;;;;24.73;17.43;;;4.20;99.90;;;;;;5053643;28;20214;-44
2022/12/07 04:06:19;;;;;;;22.87;15.03;;;4.20;99.90;;;;;;5053588;28;20173;-42
2022/12/07 04:08:44;;;;;;;26.90;18.00;;;4.20;99.90;;;;;;5052750;28;20555;-44
2022/12/07 04:11:10;;;;;;;27.37;18.07;;;4.10;99.90;;;;;;5057420;28;20534;-43
2022/12/07 04:14:18;;;;;;;28.43;18.13;;;4.10;99.90;;;;;;5056766;28;20215;-42
2022/12/07 04:16:21;;;;;;;29.93;18.17;;;4.10;99.90;;;;;;5056645;28;20648;-43
2022/12/07 04:18:46;;;;;;;25.40;17.37;;;4.10;99.90;;;;;;5056925;28;20196;-44
2022/12/07 04:21:12;;;;;;;28.27;17.30;;;4.10;99.90;;;;;;5056729;28;20188;-41
2022/12/07 04:23:38;;;;;;;27.43;16.97;;;4.10;99.90;;;;;;5057475;28;20205;-43
2022/12/07 04:26:03;;;;;;;31.57;18.07;;;4.10;99.90;;;;;;5039199;28;20311;-44
2022/12/07 04:28:29;;;;;;;27.50;17.23;;;4.10;99.90;;;;;;5057574;28;20228;-42
2022/12/07 04:30:54;;;;;;;28.07;18.80;;;4.00;99.90;;;;;;5057811;28;20191;-46
2022/12/07 04:33:20;;;;;;;28.70;17.90;;;4.00;99.90;;;;;;5057013;28;20177;-43
2022/12/07 04:35:45;;;;;;;30.70;18.17;;;4.00;99.90;;;;;;5056493;28;20180;-43
2022/12/07 04:38:11;;;;;;;24.77;14.83;;;4.00;99.90;;;;;;5056247;28;20219;-43
2022/12/07 04:40:36;;;;;;;29.33;17.87;;;4.00;99.90;;;;;;5056761;28;20186;-42
2022/12/07 04:43:02;;;;;;;31.67;18.47;;;4.00;99.90;;;;;;5056410;28;20176;-44
2022/12/07 04:45:27;;;;;;;32.63;19.07;;;4.00;99.90;;;;;;5056352;28;20653;-42
2022/12/07 04:47:53;;;;;;;27.97;17.60;;;4.00;99.90;;;;;;5056103;28;20222;-41
2022/12/07 04:50:19;;;;;;;29.00;18.37;;;4.00;99.90;;;;;;5056027;28;20213;-44
2022/12/07 04:52:44;;;;;;;33.70;18.40;;;4.00;99.90;;;;;;5056425;28;20643;-45
2022/12/07 04:55:10;;;;;;;26.77;17.90;;;4.00;99.90;;;;;;5056126;28;20200;-43
2022/12/07 04:57:35;;;;;;;30.77;19.63;;;4.00;99.90;;;;;;5056107;28;20188;-44
2022/12/07 05:00:01;;;;;;;28.97;19.03;;;4.00;99.90;;;;;;5055909;28;20208;-43
2022/12/07 05:02:26;;;;;;;29.03;18.37;;;4.00;99.90;;;;;;5056362;28;20188;-43
2022/12/07 05:04:52;;;;;;;26.27;18.47;;;4.00;99.90;;;;;;5055906;28;20620;-44
2022/12/07 05:07:17;;;;;;;28.67;19.43;;;4.00;99.90;;;;;;5055896;28;20173;-43
2022/12/07 05:09:43;;;;;;;31.50;19.63;;;4.00;99.90;;;;;;5055563;28;20327;-45
2022/12/07 05:12:08;;;;;;;30.23;17.97;;;4.00;99.90;;;;;;5055658;28;20175;-43
2022/12/07 05:14:34;;;;;;;32.27;18.37;;;4.00;99.90;;;;;;5055858;28;20261;-43
2022/12/07 05:17:00;;;;;;;29.07;17.60;;;4.00;99.90;;;;;;5037734;28;20181;-44
2022/12/07 05:19:26;;;;;;;26.80;18.07;;;4.00;99.90;;;;;;5055759;28;20666;-45
2022/12/07 05:21:51;;;;;;;26.67;16.40;;;4.00;99.90;;;;;;5055202;28;20219;-45
2022/12/07 05:24:17;;;;;;;27.37;16.67;;;4.00;99.90;;;;;;5055353;28;20232;-42
2022/12/07 05:26:44;;;;;;;28.47;18.00;;;4.00;99.90;;;;;;5055905;28;20662;-44
2022/12/07 05:29:17;;;;;;;25.67;18.17;;;4.00;99.90;;;;;;5055509;28;20208;-44
2022/12/07 05:32:02;;;;;;;26.67;17.87;;;4.00;99.90;;;;;;5056524;28;20185;-44
2022/12/07 05:34:28;;;;;;;27.27;18.30;;;4.00;99.90;;;;;;5055460;28;20173;-43
2022/12/07 05:36:53;;;;;;;29.87;19.20;;;4.00;99.90;;;;;;5055285;28;20173;-43
2022/12/07 05:39:19;;;;;;;29.60;18.33;;;4.00;99.90;;;;;;5055021;28;20203;-42
2022/12/07 05:44:29;;;;;;;29.10;19.03;;;4.00;99.90;;;;;;5055170;28;20257;-42
2022/12/07 05:46:54;;;;;;;28.67;18.97;;;4.00;99.90;;;;;;5054868;28;20181;-43
2022/12/07 05:49:20;;;;;;;29.53;19.23;;;4.00;99.90;;;;;;5054873;28;20196;-43
2022/12/07 05:51:45;;;;;;;28.57;17.20;;;4.00;99.90;;;;;;5054906;28;20567;-45
2022/12/07 05:54:11;;;;;;;25.30;18.37;;;4.00;99.90;;;;;;5036876;28;20650;-42
2022/12/07 05:56:37;;;;;;;21.97;16.23;;;4.00;99.90;;;;;;5054891;28;20523;-44
2022/12/07 06:01:46;;;;;;;32.23;18.10;;;4.00;99.90;;;;;;5054878;28;20168;-45
2022/12/07 06:04:12;;;;;;;24.70;18.40;;;4.00;99.90;;;;;;5055038;28;20200;-44
2022/12/07 06:06:38;;;;;;;28.57;18.90;;;4.00;99.90;;;;;;5054714;28;20172;-42
2022/12/07 06:09:03;;;;;;;24.83;16.47;;;3.90;99.90;;;;;;5054450;28;20192;-43
2022/12/07 06:14:13;;;;;;;26.47;18.10;;;4.00;99.90;;;;;;5054342;28;20171;-41
2022/12/07 06:16:38;;;;;;;27.90;17.63;;;4.00;99.90;;;;;;5054466;28;20260;-43
2022/12/07 06:19:04;;;;;;;26.70;16.67;;;4.00;99.90;;;;;;5054566;28;20203;-43
2022/12/07 06:21:29;;;;;;;26.37;16.77;;;3.90;99.90;;;;;;5055399;28;20176;-42
2022/12/07 06:23:55;;;;;;;27.33;17.97;;;3.90;99.90;;;;;;5054526;28;20569;-45
2022/12/07 06:26:21;;;;;;;24.47;16.47;;;3.90;99.90;;;;;;5054585;28;20529;-43
2022/12/07 06:28:47;;;;;;;25.37;15.67;;;3.90;99.90;;;;;;5055028;28;20185;-43
2022/12/07 06:31:12;;;;;;;21.07;15.30;;;3.90;99.90;;;;;;5057205;28;20255;-45
2022/12/07 06:33:38;;;;;;;22.77;16.13;;;3.90;99.90;;;;;;5057942;28;20652;-45
2022/12/07 06:36:04;;;;;;;28.43;17.00;;;3.90;99.90;;;;;;5055765;28;20271;-43
2022/12/07 06:38:29;;;;;;;22.67;15.60;;;3.90;99.90;;;;;;5054209;28;20262;-43
2022/12/07 06:40:55;;;;;;;30.60;18.70;;;3.90;99.90;;;;;;5054924;28;20192;-50
2022/12/07 06:43:20;;;;;;;24.70;16.33;;;3.80;99.90;;;;;;5054406;28;20234;-50
2022/12/07 06:45:46;;;;;;;27.20;16.60;;;3.80;99.90;;;;;;5054288;28;20184;-51
2022/12/07 06:48:11;;;;;;;22.40;16.53;;;3.80;99.90;;;;;;5053768;28;20264;-49
2022/12/07 06:50:37;;;;;;;30.10;17.13;;;3.90;99.90;;;;;;5054027;28;20196;-49
2022/12/07 06:53:02;;;;;;;22.93;16.20;;;3.90;99.90;;;;;;5054673;28;20189;-50
2022/12/07 06:55:28;;;;;;;24.83;16.57;;;3.90;99.90;;;;;;5053646;28;20203;-50
2022/12/07 06:57:53;;;;;;;27.23;17.70;;;3.90;99.90;;;;;;5054087;28;20186;-50
2022/12/07 07:00:19;;;;;;;25.87;17.03;;;3.80;99.90;;;;;;5053516;28;20203;-50
2022/12/07 07:02:45;;;;;;;26.43;16.23;;;3.80;99.90;;;;;;5053459;28;20214;-50
2022/12/07 07:05:10;;;;;;;24.93;16.83;;;3.80;99.90;;;;;;5053537;28;20577;-50
2022/12/07 07:07:36;;;;;;;32.30;16.83;;;3.80;99.90;;;;;;5053641;28;20523;-49
2022/12/07 07:10:02;;;;;;;20.93;15.60;;;3.80;99.90;;;;;;5053334;28;20656;-50
2022/12/07 07:12:27;;;;;;;20.97;15.20;;;3.70;99.90;;;;;;5052136;28;20226;-49
2022/12/07 07:14:53;;;;;;;23.93;15.80;;;3.70;99.90;;;;;;5053533;28;20632;-50
2022/12/07 07:17:18;;;;;;;21.87;15.47;;;3.70;99.90;;;;;;5053917;28;20211;-48
2022/12/07 07:19:44;;;;;;;18.47;14.03;;;3.60;99.90;;;;;;5053450;28;20672;-50
2022/12/07 07:22:09;;;;;;;22.37;14.30;;;3.60;99.90;;;;;;5053893;28;20181;-48
2022/12/07 07:24:35;;;;;;;20.80;14.47;;;3.50;99.90;;;;;;5053241;28;20230;-50
2022/12/07 07:27:01;;;;;;;21.10;14.90;;;3.50;99.90;;;;;;5035578;28;20231;-49
2022/12/07 07:29:26;;;;;;;19.33;13.93;;;3.40;99.90;;;;;;5053307;28;20271;-50
2022/12/07 07:31:52;;;;;;;26.87;14.47;;;3.40;99.90;;;;;;5053377;28;20267;-49
2022/12/07 07:34:17;;;;;;;18.37;13.37;;;3.30;99.90;;;;;;5053502;28;20193;-49
2022/12/07 07:36:43;;;;;;;20.70;13.73;;;3.30;99.90;;;;;;5053440;28;20585;-49
2022/12/07 07:39:12;;;;;;;20.33;12.90;;;3.30;99.90;;;;;;5053223;28;20616;-49
2022/12/07 07:41:38;;;;;;;22.70;14.20;;;3.30;99.90;;;;;;5053357;28;20603;-50
2022/12/07 07:44:04;;;;;;;21.87;14.53;;;3.20;99.90;;;;;;5055438;28;20250;-51
2022/12/07 07:46:30;;;;;;;21.47;14.17;;;3.30;99.90;;;;;;5057130;28;20229;-49
2022/12/07 07:48:55;;;;;;;21.40;14.50;;;3.30;99.90;;;;;;5057444;28;20196;-49
2022/12/07 07:51:21;;;;;;;18.90;13.70;;;3.30;99.90;;;;;;5056987;28;20306;-50
2022/12/07 07:53:46;;;;;;;18.70;13.33;;;3.30;99.90;;;;;;5057006;28;20180;-49
2022/12/07 07:56:12;;;;;;;22.30;14.37;;;3.30;99.90;;;;;;5057143;28;20237;-50
2022/12/07 07:58:39;;;;;;;20.57;12.87;;;3.40;99.90;;;;;;5038949;28;20208;-49
2022/12/07 08:01:06;;;;;;;21.90;13.30;;;3.40;99.90;;;;;;5057199;28;20230;-51
2022/12/07 08:03:31;;;;;;;20.93;14.17;;;3.40;99.90;;;;;;5056651;28;20191;-51
2022/12/07 08:05:57;;;;;;;21.90;14.10;;;3.40;99.90;;;;;;5056682;28;20180;-49
2022/12/07 08:08:22;;;;;;;22.77;14.47;;;3.40;99.90;;;;;;5056872;28;20192;-49
2022/12/07 08:10:48;;;;;;;25.23;15.60;;;3.40;99.90;;;;;;5038777;28;20267;-50
2022/12/07 08:13:16;;;;;;;25.50;15.13;;;3.40;99.90;;;;;;5057046;28;20214;-51
2022/12/07 08:15:44;;;;;;;21.50;14.07;;;3.40;99.90;;;;;;5056921;28;20191;-51
2022/12/07 08:18:10;;;;;;;24.77;15.43;;;3.50;99.90;;;;;;5056416;28;20216;-50
2022/12/07 08:20:37;;;;;;;23.60;16.20;;;3.50;99.90;;;;;;5056717;28;20184;-50
2022/12/07 08:23:03;;;;;;;21.63;15.20;;;3.50;99.90;;;;;;5056509;28;20183;-52
2022/12/07 08:25:29;;;;;;;27.27;16.97;;;3.50;99.90;;;;;;5056291;28;20235;-51
2022/12/07 08:27:55;;;;;;;26.00;15.97;;;3.60;99.90;;;;;;5056618;28;20184;-49
2022/12/07 08:30:21;;;;;;;26.87;17.20;;;3.60;99.90;;;;;;5056285;28;20213;-50
2022/12/07 08:32:47;;;;;;;28.00;15.87;;;3.60;99.90;;;;;;5056507;28;20518;-49
2022/12/07 08:35:14;;;;;;;24.03;15.77;;;3.70;99.90;;;;;;5056281;28;20204;-51
2022/12/07 08:37:39;;;;;;;25.63;16.60;;;3.60;99.90;;;;;;5056179;28;20188;-52
2022/12/07 08:40:06;;;;;;;27.43;16.50;;;3.70;99.90;;;;;;5057267;28;20567;-51
2022/12/07 08:42:39;;;;;;;28.60;16.80;;;3.70;99.90;;;;;;5056475;28;20556;-51
2022/12/07 08:45:07;;;;;;;32.77;16.90;;;3.70;99.90;;;;;;5056017;28;20578;-51
2022/12/07 08:47:35;;;;;;;26.80;17.00;;;3.70;99.90;;;;;;5055903;28;20180;-50
2022/12/07 08:50:03;;;;;;;29.67;17.10;;;3.70;99.90;;;;;;5054703;28;20748;-50
2022/12/07 08:52:30;;;;;;;27.00;17.37;;;3.80;99.90;;;;;;5056652;28;20172;-50
2022/12/07 08:54:56;;;;;;;27.33;17.07;;;3.80;99.90;;;;;;5055617;28;20528;-48
2022/12/07 08:57:22;;;;;;;29.57;18.23;;;3.90;99.90;;;;;;5056038;28;20233;-49
2022/12/07 08:59:47;;;;;;;25.60;16.43;;;3.90;99.90;;;;;;5055881;28;20196;-49
2022/12/07 09:02:13;;;;;;;34.20;17.70;;;4.00;99.90;;;;;;5055954;28;20180;-52
2022/12/07 09:04:38;;;;;;;33.53;18.50;;;4.00;99.90;;;;;;5055615;28;20244;-50
2022/12/07 09:07:04;;;;;;;29.43;16.27;;;4.10;99.90;;;;;;5055770;28;20342;-50
2022/12/07 09:09:30;;;;;;;32.20;18.50;;;4.20;99.90;;;;;;5055788;28;20209;-49
2022/12/07 09:11:55;;;;;;;32.17;17.90;;;4.20;99.90;;;;;;5055601;28;20206;-49
2022/12/07 09:14:21;;;;;;;32.60;18.50;;;4.30;99.90;;;;;;5038126;28;20652;-51
2022/12/07 09:16:47;;;;;;;26.90;16.50;;;4.40;99.90;;;;;;5055554;28;20189;-51
2022/12/07 09:19:12;;;;;;;28.80;18.00;;;4.50;99.90;;;;;;5055717;28;20201;-49
2022/12/07 09:21:38;;;;;;;32.47;17.10;;;4.50;99.90;;;;;;5055374;28;20551;-49
2022/12/07 09:24:03;;;;;;;29.77;17.73;;;4.60;99.90;;;;;;5055642;28;20213;-50
2022/12/07 09:26:29;;;;;;;30.90;16.27;;;4.70;99.90;;;;;;5056020;28;20722;-49
2022/12/07 09:28:54;;;;;;;31.53;17.03;;;4.70;99.90;;;;;;5064486;28;20226;-50
2022/12/07 09:31:20;;;;;;;25.93;16.73;;;4.80;99.90;;;;;;5069286;28;20179;-51
2022/12/07 09:33:46;;;;;;;24.47;13.10;;;4.80;99.90;;;;;;5059121;28;20192;-48
2022/12/07 09:36:11;;;;;;;27.77;15.53;;;4.90;99.90;;;;;;5037902;28;20264;-50
2022/12/07 09:38:37;;;;;;;25.20;14.33;;;4.90;99.90;;;;;;5055315;28;20296;-49
2022/12/07 09:41:07;;;;;;;26.17;16.30;;;4.90;99.90;;;;;;5055630;28;20185;-51
2022/12/07 09:43:34;;;;;;;26.30;15.10;;;4.80;99.90;;;;;;5054998;28;20248;-50
2022/12/07 09:46:00;;;;;;;31.80;15.40;;;4.80;99.90;;;;;;5055143;28;20200;-50
2022/12/07 09:48:30;;;;;;;29.47;15.77;;;4.90;99.90;;;;;;5055238;28;20200;-50
2022/12/07 09:50:58;;;;;;;26.87;16.13;;;4.90;99.90;;;;;;5055072;28;20223;-49
2022/12/07 09:53:28;;;;;;;28.17;15.90;;;4.90;99.90;;;;;;5054882;28;20204;-50
2022/12/07 09:55:54;;;;;;;31.83;17.03;;;5.00;99.90;;;;;;5054908;28;20216;-50
2022/12/07 09:58:23;;;;;;;26.27;13.63;;;5.00;99.90;;;;;;5054670;28;20262;-50
2022/12/07 10:00:53;;;;;;;29.53;15.73;;;5.10;99.90;;;;;;5054846;28;20264;-50
2022/12/07 10:03:19;;;;;;;24.57;14.53;;;5.00;99.90;;;;;;5055070;28;20161;-49
2022/12/07 10:05:50;;;;;;;31.40;15.20;;;5.10;99.90;;;;;;5055098;28;20235;-48
2022/12/07 10:08:17;;;;;;;19.87;13.07;;;5.10;99.90;;;;;;5053555;28;20158;-51
2022/12/07 10:10:43;;;;;;;27.97;15.90;;;5.10;99.90;;;;;;5054287;28;20269;-51
2022/12/07 10:13:15;;;;;;;25.27;15.07;;;5.10;99.90;;;;;;5054815;28;20171;-50
2022/12/07 10:15:43;;;;;;;27.30;17.07;;;5.10;99.90;;;;;;5054624;28;20200;-50
2022/12/07 10:18:31;;;;;;;30.60;14.73;;;5.00;99.90;;;;;;5054410;28;20186;-49
2022/12/07 10:21:12;;;;;;;26.80;15.53;;;4.90;99.90;;;;;;5054397;28;20628;-50
2022/12/07 10:23:41;;;;;;;25.83;14.80;;;4.90;99.90;;;;;;5054540;28;20575;-50
2022/12/07 10:26:34;;;;;;;25.60;16.07;;;5.00;99.90;;;;;;5036214;28;20205;-50
2022/12/07 10:29:21;;;;;;;30.17;16.57;;;4.90;99.90;;;;;;5054241;28;20195;-50
2022/12/07 10:31:55;;;;;;;26.87;16.07;;;5.00;99.90;;;;;;5053901;28;20186;-50
2022/12/07 10:34:26;;;;;;;28.17;15.50;;;5.10;99.90;;;;;;5054232;28;20624;-49
2022/12/07 10:36:53;;;;;;;26.70;15.97;;;5.10;99.90;;;;;;5054065;28;20163;-51
2022/12/07 10:39:21;;;;;;;24.50;14.53;;;5.10;99.90;;;;;;5054114;28;20205;-50
2022/12/07 10:42:03;;;;;;;30.73;16.27;;;5.20;99.90;;;;;;5053684;28;20189;-51
2022/12/07 10:44:31;;;;;;;20.23;13.47;;;5.20;99.90;;;;;;5053825;28;20218;-51
2022/12/07 10:47:17;;;;;;;26.03;15.30;;;5.20;99.90;;;;;;5054173;28;20179;-50
2022/12/07 10:50:08;;;;;;;27.57;15.77;;;5.30;99.90;;;;;;5053606;28;20203;-50
2022/12/07 10:52:52;;;;;;;27.00;16.33;;;5.30;99.90;;;;;;5053812;28;20174;-50
2022/12/07 10:55:29;;;;;;;26.60;15.77;;;5.40;99.90;;;;;;5053948;28;20202;-50
2022/12/07 10:58:30;;;;;;;28.87;15.00;;;5.40;99.90;;;;;;5054159;28;20180;-49
2022/12/07 11:01:05;;;;;;;26.43;14.87;;;5.40;99.90;;;;;;5053578;28;20177;-51
2022/12/07 11:04:04;;;;;;;30.37;16.07;;;5.40;99.90;;;;;;5053776;28;20179;-50
2022/12/07 11:06:58;;;;;;;28.93;15.97;;;5.50;99.90;;;;;;5053542;28;20206;-51
2022/12/07 11:10:12;;;;;;;24.97;15.20;;;5.60;99.90;;;;;;5054250;28;20202;-50
2022/12/07 11:13:12;;;;;;;26.73;16.03;;;5.70;99.90;;;;;;5052599;28;20195;-50
2022/12/07 11:16:05;;;;;;;28.97;17.57;;;5.70;99.90;;;;;;5053743;28;20183;-49
2022/12/07 11:18:50;;;;;;;28.67;16.83;;;5.80;99.90;;;;;;5017861;28;20206;-51
2022/12/07 11:21:28;;;;;;;33.07;18.57;;;5.90;99.90;;;;;;5054680;28;20170;-50
2022/12/07 11:23:54;;;;;;;26.87;15.57;;;6.00;99.90;;;;;;5068031;28;20184;-49
2022/12/07 11:26:45;;;;;;;28.20;15.73;;;6.10;99.90;;;;;;5068807;28;20183;-50
2022/12/07 11:29:22;;;;;;;29.77;17.13;;;6.10;99.90;;;;;;5053582;28;20198;-51
2022/12/07 11:31:58;;;;;;;24.40;15.37;;;6.20;99.90;;;;;;5053895;28;20176;-49
2022/12/07 11:34:44;;;;;;;26.33;15.87;;;6.20;99.90;;;;;;5053443;28;20269;-50
2022/12/07 11:37:25;;;;;;;29.00;15.97;;;6.20;99.90;;;;;;5053620;28;20173;-50
2022/12/07 11:39:55;;;;;;;24.00;15.73;;;6.20;99.90;;;;;;5053293;28;20210;-50
2022/12/07 11:42:25;;;;;;;31.17;17.03;;;6.20;99.90;;;;;;5051659;28;20642;-50
2022/12/07 11:45:09;;;;;;;28.33;16.67;;;6.20;99.90;;;;;;5035930;28;20204;-50
2022/12/07 11:47:38;;;;;;;33.47;16.93;;;6.30;99.90;;;;;;5053335;28;20175;-51
2022/12/07 11:50:27;;;;;;;23.83;14.87;;;6.40;99.90;;;;;;5052884;28;20208;-50
2022/12/07 11:53:22;;;;;;;26.50;14.30;;;6.50;99.90;;;;;;5053382;28;20241;-50
2022/12/07 11:56:01;;;;;;;20.87;13.10;;;6.50;99.90;;;;;;5014811;28;20285;-49
2022/12/07 11:58:37;;;;;;;27.67;15.37;;;6.60;99.90;;;;;;5053115;28;20599;-50
2022/12/07 12:01:33;;;;;;;23.33;14.23;;;6.70;99.90;;;;;;5053046;28;20168;-50
2022/12/07 12:04:11;;;;;;;25.70;14.50;;;6.80;99.90;;;;;;5052993;28;20565;-49
2022/12/07 12:06:38;;;;;;;22.93;14.23;;;6.80;99.90;;;;;;5052951;28;20175;-50
2022/12/07 12:09:27;;;;;;;26.07;15.90;;;6.80;99.90;;;;;;5052754;28;20196;-49
2022/12/07 12:12:11;;;;;;;24.27;14.50;;;6.90;99.90;;;;;;5053109;28;20160;-51
2022/12/07 12:14:42;;;;;;;26.77;15.10;;;6.80;99.90;;;;;;5052821;28;20168;-50
2022/12/07 12:17:26;;;;;;;25.87;15.40;;;6.80;99.90;;;;;;5052739;28;20711;-50
2022/12/07 12:20:04;;;;;;;28.67;15.10;;;6.70;99.90;;;;;;5053000;28;20196;-50
2022/12/07 12:22:42;;;;;;;26.53;16.07;;;6.70;99.90;;;;;;5053027;28;20176;-51
2022/12/07 12:25:25;;;;;;;28.13;14.80;;;6.70;99.90;;;;;;5052832;28;20200;-50
2022/12/07 12:27:53;;;;;;;23.03;14.00;;;6.60;99.90;;;;;;5052881;28;20569;-50
2022/12/07 12:30:30;;;;;;;18.00;12.00;;;6.60;99.90;;;;;;5053694;28;20200;-51
2022/12/07 12:33:28;;;;;;;25.00;13.90;;;6.60;99.90;;;;;;5056544;28;20171;-51
2022/12/07 12:36:35;;;;;;;22.87;12.60;;;6.50;99.90;;;;;;5052071;28;20189;-50
2022/12/07 12:39:06;;;;;;;21.20;10.70;;;6.50;99.90;;;;;;5014038;28;20297;-50
2022/12/07 12:44:15;;;;;;;18.37;8.97;;;6.50;99.90;;;;;;5056281;28;20227;-49
2022/12/07 12:46:52;;;;;;;14.60;9.43;;;6.50;99.90;;;;;;5055927;28;20186;-50
2022/12/07 12:49:17;;;;;;;16.10;8.30;;;6.40;99.90;;;;;;5055925;28;20508;-50
2022/12/07 12:51:47;;;;;;;13.53;8.13;;;6.50;99.90;;;;;;5055903;28;20188;-50
2022/12/07 12:54:19;;;;;;;11.17;7.17;;;6.50;99.90;;;;;;5057358;28;20644;-50
2022/12/07 12:57:05;;;;;;;15.93;7.27;;;6.50;99.90;;;;;;5056493;28;20644;-50
2022/12/07 12:59:33;;;;;;;15.03;8.10;;;6.50;99.90;;;;;;5037804;28;20207;-52
2022/12/07 13:02:23;;;;;;;12.80;7.30;;;6.50;99.90;;;;;;5055930;28;20207;-52
2022/12/07 13:05:12;;;;;;;15.00;7.10;;;6.50;99.90;;;;;;5056003;28;20189;-50
2022/12/07 13:07:47;;;;;;;17.10;7.70;;;6.50;99.90;;;;;;5055804;28;20165;-50
2022/12/07 13:10:30;;;;;;;12.97;7.67;;;6.50;99.90;;;;;;5055769;28;20234;-50